sensor_id;sensor_type;location;lat;lon;timestamp;P1;durP1;ratioP1;P2;durP2;ratioP2
51292;SDS011;37377;45.186;9.778;2024-03-02T08:33:00;25.2;;;11.8;;
51292;SDS011;37377;45.186;9.778;2024-03-02T08:34:00;25.2;;;11.8;;
51292;SDS011;37377;45.186;9.778;2024-03-02T08:35:00;25.2;;;11.8;;
51292;SDS011;37377;45.186;9.778;2024-03-02T08:36:01;25.2;;;11.8;;
51292;SDS011;37377;45.186;9.778;2024-03-02T14:10:00;13.2;;;11.8;;
51292;SDS011;37377;45.186;9.778;2024-03-02T14:11:02;13.2;;;11.8;;
51292;SDS011;37377;45.186;9.778;2024-03-02T15:38:00;16.4;;;14.7;;
51292;SDS011;37377;45.186;9.778;2024-03-02T15:39:01;16.4;;;14.7;;
51292;SDS011;37377;45.186;9.778;2024-03-02T17:16:00;32.0;;;27.9;;
51292;SDS011;37377;45.186;9.778;2024-03-02T17:17:00;32.0;;;27.9;;
51292;SDS011;37377;45.186;9.778;2024-03-02T17:18:00;32.0;;;27.9;;
51292;SDS011;37377;45.186;9.778;2024-03-02T17:19:01;28.5;;;25.5;;
51292;SDS011;37377;45.186;9.778;2024-03-02T17:20:02;28.5;;;25.5;;
51292;SDS011;37377;45.186;9.778;2024-03-02T17:21:01;28.5;;;25.5;;
51292;SDS011;37377;45.186;9.778;2024-03-02T17:25:00;30.4;;;27.2;;
51292;SDS011;37377;45.186;9.778;2024-03-02T17:26:01;30.4;;;27.2;;
51292;SDS011;37377;45.186;9.778;2024-03-02T17:27:00;30.4;;;27.2;;
51292;SDS011;37377;45.186;9.778;2024-03-02T17:32:00;32.8;;;29.4;;
51292;SDS011;37377;45.186;9.778;2024-03-02T17:33:00;32.8;;;29.4;;
51292;SDS011;37377;45.186;9.778;2024-03-02T17:34:00;32.8;;;29.4;;
51292;SDS011;37377;45.186;9.778;2024-03-02T17:35:01;32.8;;;29.4;;
51292;SDS011;37377;45.186;9.778;2024-03-02T17:40:00;36.0;;;32.1;;
51292;SDS011;37377;45.186;9.778;2024-03-02T17:41:00;36.0;;;32.1;;
51292;SDS011;37377;45.186;9.778;2024-03-02T17:42:00;36.0;;;32.1;;
51292;SDS011;37377;45.186;9.778;2024-03-02T17:43:00;38.3;;;34.2;;
51292;SDS011;37377;45.186;9.778;2024-03-02T17:44:00;38.3;;;34.2;;
51292;SDS011;37377;45.186;9.778;2024-03-02T17:45:00;38.3;;;34.2;;
51292;SDS011;37377;45.186;9.778;2024-03-02T17:46:00;38.3;;;34.2;;
51292;SDS011;37377;45.186;9.778;2024-03-02T17:47:00;38.3;;;34.2;;
51292;SDS011;37377;45.186;9.778;2024-03-02T17:48:01;38.3;;;34.2;;
51292;SDS011;37377;45.186;9.778;2024-03-02T17:49:00;40.4;;;35.9;;
51292;SDS011;37377;45.186;9.778;2024-03-02T17:50:00;40.4;;;35.9;;
51292;SDS011;37377;45.186;9.778;2024-03-02T17:52:00;46.7;;;41.6;;
51292;SDS011;37377;45.186;9.778;2024-03-02T17:53:00;46.7;;;41.6;;
51292;SDS011;37377;45.186;9.778;2024-03-02T17:54:00;46.7;;;41.6;;
51292;SDS011;37377;45.186;9.778;2024-03-02T17:56:00;52.4;;;43.1;;
51292;SDS011;37377;45.186;9.778;2024-03-02T17:57:00;52.4;;;43.1;;
51292;SDS011;37377;45.186;9.778;2024-03-02T17:58:01;52.4;;;43.1;;
51292;SDS011;37377;45.186;9.778;2024-03-02T17:59:00;52.4;;;43.1;;
51292;SDS011;37377;45.186;9.778;2024-03-02T18:00:00;52.4;;;43.1;;
51292;SDS011;37377;45.186;9.778;2024-03-02T18:01:01;52.4;;;43.1;;
51292;SDS011;37377;45.186;9.778;2024-03-02T18:19:02;53.4;;;46.9;;
51292;SDS011;37377;45.186;9.778;2024-03-02T18:20:00;53.4;;;46.9;;
51292;SDS011;37377;45.186;9.778;2024-03-02T18:21:03;53.4;;;46.9;;
51292;SDS011;37377;45.186;9.778;2024-03-02T18:22:00;53.4;;;46.9;;
51292;SDS011;37377;45.186;9.778;2024-03-02T18:23:01;53.4;;;46.9;;
51292;SDS011;37377;45.186;9.778;2024-03-02T18:24:00;53.4;;;46.9;;
51292;SDS011;37377;45.186;9.778;2024-03-02T18:25:01;53.4;;;46.9;;
51292;SDS011;37377;45.186;9.778;2024-03-02T18:26:00;53.4;;;46.9;;
51292;SDS011;37377;45.186;9.778;2024-03-02T18:27:00;57.5;;;48.0;;
51292;SDS011;37377;45.186;9.778;2024-03-02T18:28:00;57.5;;;48.0;;
51292;SDS011;37377;45.186;9.778;2024-03-02T18:29:00;57.5;;;48.0;;
51292;SDS011;37377;45.186;9.778;2024-03-02T18:30:03;57.5;;;48.0;;
51292;SDS011;37377;45.186;9.778;2024-03-02T18:31:00;54.3;;;47.1;;
51292;SDS011;37377;45.186;9.778;2024-03-02T18:32:02;54.3;;;47.1;;
51292;SDS011;37377;45.186;9.778;2024-03-02T18:33:00;54.3;;;47.1;;
51292;SDS011;37377;45.186;9.778;2024-03-02T18:34:00;52.0;;;46.3;;
51292;SDS011;37377;45.186;9.778;2024-03-02T18:35:00;52.0;;;46.3;;
51292;SDS011;37377;45.186;9.778;2024-03-02T18:36:00;52.0;;;46.3;;
51292;SDS011;37377;45.186;9.778;2024-03-02T18:37:00;54.3;;;47.9;;
51292;SDS011;37377;45.186;9.778;2024-03-02T18:38:00;54.3;;;47.9;;
51292;SDS011;37377;45.186;9.778;2024-03-02T18:39:00;54.3;;;47.9;;
51292;SDS011;37377;45.186;9.778;2024-03-02T18:40:01;55.0;;;48.8;;
51292;SDS011;37377;45.186;9.778;2024-03-02T18:41:01;55.0;;;48.8;;
51292;SDS011;37377;45.186;9.778;2024-03-02T18:42:00;55.0;;;48.8;;
51292;SDS011;37377;45.186;9.778;2024-03-02T18:43:03;55.0;;;48.8;;
51292;SDS011;37377;45.186;9.778;2024-03-02T18:45:05;53.4;;;47.8;;
51292;SDS011;37377;45.186;9.778;2024-03-02T18:46:00;54.7;;;48.0;;
51292;SDS011;37377;45.186;9.778;2024-03-02T18:47:00;54.7;;;48.0;;
51292;SDS011;37377;45.186;9.778;2024-03-02T18:48:04;54.7;;;48.0;;
51292;SDS011;37377;45.186;9.778;2024-03-02T18:49:00;55.5;;;49.4;;
51292;SDS011;37377;45.186;9.778;2024-03-02T18:50:02;55.5;;;49.4;;
51292;SDS011;37377;45.186;9.778;2024-03-02T18:51:04;55.5;;;49.4;;
51292;SDS011;37377;45.186;9.778;2024-03-02T18:52:00;55.5;;;49.4;;
